Time;durP1;ratioP1;P1;durP2;ratioP2;P2;SDS_P1;SDS_P2;PMS_P1;PMS_P2;Temp;Humidity;BMP_temperature;BMP_pressure;BME280_temperature;BME280_humidity;BME280_pressure;Samples;Min_cycle;Max_cycle;Signal;HPM_P1;HPM_P2
2022/02/21 00:00:16;;;;;;;1.27;1.15;;;9.40;43.10;;;;;;6181045;23;20187;-84
2022/02/21 00:02:44;;;;;;;0.80;0.80;;;9.40;43.50;;;;;;6205546;23;20225;-84
2022/02/21 00:05:14;;;;;;;0.60;0.60;;;9.40;43.30;;;;;;6206004;23;20206;-87
2022/02/21 00:07:42;;;;;;;1.00;0.90;;;9.50;43.50;;;;;;6206814;23;20210;-84
2022/02/21 00:10:11;;;;;;;1.17;0.80;;;9.40;44.10;;;;;;6207576;23;20175;-84
2022/02/21 00:12:38;;;;;;;1.05;0.80;;;9.40;44.40;;;;;;6205414;23;20208;-86
2022/02/21 00:15:09;;;;;;;1.42;0.70;;;9.30;44.40;;;;;;6206842;23;20214;-84
2022/02/21 00:17:36;;;;;;;0.88;0.88;;;9.30;44.60;;;;;;6205376;23;20233;-84
2022/02/21 00:20:06;;;;;;;0.60;0.60;;;9.40;44.40;;;;;;6206817;23;20178;-84
2022/02/21 00:22:36;;;;;;;0.85;0.85;;;9.30;44.60;;;;;;6204782;23;20273;-86
2022/02/21 00:25:03;;;;;;;3.03;0.88;;;9.30;44.60;;;;;;6206969;23;20210;-85
2022/02/21 00:27:30;;;;;;;1.10;1.00;;;9.30;44.60;;;;;;6205724;23;20664;-89
2022/02/21 00:29:58;;;;;;;1.00;0.90;;;9.40;44.60;;;;;;6180961;23;20217;-85
2022/02/21 00:32:26;;;;;;;1.45;0.93;;;9.40;45.60;;;;;;6205346;23;20229;-84
2022/02/21 00:34:53;;;;;;;0.70;0.70;;;9.30;45.50;;;;;;6206852;23;20209;-84
2022/02/21 00:37:21;;;;;;;0.70;0.70;;;9.30;45.50;;;;;;6165661;23;20218;-86
2022/02/21 00:39:49;;;;;;;0.85;0.82;;;9.30;46.30;;;;;;6205093;23;20175;-86
2022/02/21 00:42:21;;;;;;;0.68;0.68;;;9.20;46.10;;;;;;6206819;23;20202;-85
2022/02/21 00:44:51;;;;;;;1.17;0.98;;;9.20;47.60;;;;;;6181295;23;20175;-83
2022/02/21 00:47:19;;;;;;;0.90;0.90;;;9.20;47.60;;;;;;6204061;23;20198;-86
2022/02/21 00:49:47;;;;;;;0.70;0.65;;;9.20;45.70;;;;;;6205882;23;20198;-85
2022/02/21 00:52:15;;;;;;;0.70;0.70;;;9.30;45.10;;;;;;6205589;23;20217;-88
2022/02/21 00:54:42;;;;;;;0.70;0.70;;;9.30;45.70;;;;;;6206486;23;20221;-85
2022/02/21 00:57:09;;;;;;;0.60;0.57;;;9.30;44.90;;;;;;6205358;23;20594;-87
2022/02/21 00:59:36;;;;;;;1.40;0.90;;;9.40;44.10;;;;;;6206237;23;20642;-84
2022/02/21 01:02:04;;;;;;;0.60;0.60;;;9.40;45.00;;;;;;6180518;23;20218;-84
2022/02/21 01:04:31;;;;;;;0.73;0.73;;;9.40;44.40;;;;;;6181182;23;20178;-85
2022/02/21 01:07:00;;;;;;;1.08;0.98;;;9.50;43.90;;;;;;6206742;23;20202;-85
2022/02/21 01:09:27;;;;;;;0.77;0.70;;;9.50;43.80;;;;;;6206315;23;20186;-84
2022/02/21 01:11:54;;;;;;;0.65;0.65;;;9.50;43.40;;;;;;6205570;23;20209;-89
2022/02/21 01:14:21;;;;;;;0.85;0.70;;;9.60;43.00;;;;;;6205291;23;20217;-87
2022/02/21 01:16:50;;;;;;;0.60;0.60;;;9.70;41.20;;;;;;6204834;23;20202;-84
2022/02/21 01:19:17;;;;;;;2.05;0.80;;;9.70;41.20;;;;;;6205555;23;20174;-85
2022/02/21 01:21:44;;;;;;;0.77;0.77;;;9.80;40.10;;;;;;6205510;23;20209;-84
2022/02/21 01:24:12;;;;;;;1.73;0.70;;;9.80;40.70;;;;;;6205413;23;20167;-87
2022/02/21 01:26:39;;;;;;;1.60;0.95;;;9.80;40.70;;;;;;6205148;23;20246;-88
2022/02/21 01:29:06;;;;;;;1.33;0.82;;;9.90;39.40;;;;;;6204802;23;20178;-84
2022/02/21 01:31:33;;;;;;;1.35;0.98;;;10.00;37.30;;;;;;6204254;23;20206;-84
2022/02/21 01:34:00;;;;;;;2.60;1.15;;;9.90;39.20;;;;;;6204507;23;20179;-87
2022/02/21 01:36:27;;;;;;;1.10;0.98;;;9.90;38.60;;;;;;6203947;23;20209;-85
2022/02/21 01:38:54;;;;;;;1.20;0.90;;;10.00;37.00;;;;;;6205281;23;20175;-84
2022/02/21 01:41:23;;;;;;;1.00;0.85;;;9.90;38.40;;;;;;6204327;23;20230;-85
2022/02/21 01:43:50;;;;;;;2.00;0.93;;;9.90;39.00;;;;;;6180388;23;20210;-86
2022/02/21 01:46:17;;;;;;;1.42;1.10;;;9.90;39.10;;;;;;6180432;23;20182;-85
2022/02/21 01:48:45;;;;;;;1.27;0.90;;;9.80;38.70;;;;;;6205832;23;20210;-85
2022/02/21 01:51:12;;;;;;;1.25;0.88;;;9.80;39.00;;;;;;6207843;23;20198;-85
2022/02/21 01:53:41;;;;;;;1.10;0.95;;;9.80;39.10;;;;;;6204846;23;20202;-84
2022/02/21 01:56:08;;;;;;;2.97;1.00;;;10.00;36.50;;;;;;6206568;23;20195;-86
2022/02/21 01:58:36;;;;;;;2.42;1.30;;;10.00;36.40;;;;;;6177038;23;20210;-84
2022/02/21 02:01:04;;;;;;;2.85;0.85;;;9.90;37.90;;;;;;6205594;23;20174;-84
2022/02/21 02:03:31;;;;;;;1.58;1.00;;;9.90;38.30;;;;;;6204822;23;20240;-84
2022/02/21 02:05:58;;;;;;;3.17;1.08;;;9.90;37.80;;;;;;6204660;23;20186;-85
2022/02/21 02:08:25;;;;;;;1.20;0.90;;;9.90;38.00;;;;;;6179214;23;20202;-87
2022/02/21 02:10:52;;;;;;;1.20;0.93;;;9.80;37.90;;;;;;6204530;23;20174;-85
2022/02/21 02:13:20;;;;;;;1.42;0.90;;;9.90;37.70;;;;;;6205645;23;20226;-87
2022/02/21 02:15:53;;;;;;;1.40;0.93;;;9.90;37.70;;;;;;6205399;23;20186;-85
2022/02/21 02:18:20;;;;;;;3.10;1.08;;;9.90;37.10;;;;;;6203503;23;20206;-84
2022/02/21 02:20:47;;;;;;;1.88;0.98;;;9.80;37.40;;;;;;6204533;23;20230;-86
2022/02/21 02:23:16;;;;;;;2.33;0.90;;;9.90;36.80;;;;;;6204242;23;20234;-87
2022/02/21 02:25:43;;;;;;;1.98;0.88;;;10.00;35.10;;;;;;6207099;23;20210;-84
2022/02/21 02:28:12;;;;;;;1.40;0.85;;;10.00;34.60;;;;;;6205454;23;20210;-86
2022/02/21 02:30:39;;;;;;;0.85;0.85;;;10.00;34.60;;;;;;6205160;23;20193;-86
2022/02/21 02:33:06;;;;;;;1.40;0.90;;;10.10;33.70;;;;;;6176592;23;20229;-84
2022/02/21 02:35:34;;;;;;;0.88;0.80;;;10.10;33.60;;;;;;6204731;23;20230;-84
2022/02/21 02:38:03;;;;;;;1.02;0.80;;;10.20;33.40;;;;;;6206012;23;20201;-85
2022/02/21 02:40:34;;;;;;;1.58;1.10;;;10.10;34.10;;;;;;6205873;23;20174;-84
2022/02/21 02:43:02;;;;;;;1.40;0.70;;;10.20;34.00;;;;;;6179404;23;20724;-84
2022/02/21 02:45:30;;;;;;;1.00;0.88;;;10.20;33.50;;;;;;6180734;23;20175;-85
2022/02/21 02:47:57;;;;;;;1.00;0.65;;;10.20;33.00;;;;;;6205862;23;20202;-86
2022/02/21 02:50:25;;;;;;;1.60;0.90;;;10.20;32.20;;;;;;6206183;23;20543;-84
2022/02/21 02:52:53;;;;;;;2.08;0.80;;;10.30;32.90;;;;;;6205090;23;20243;-84
2022/02/21 02:55:20;;;;;;;0.80;0.80;;;10.30;32.70;;;;;;6178947;23;20198;-85
2022/02/21 02:57:49;;;;;;;1.30;0.90;;;10.40;31.90;;;;;;6205407;23;20202;-84
2022/02/21 03:00:17;;;;;;;1.77;0.90;;;10.40;31.90;;;;;;6204660;23;20266;-86
2022/02/21 03:02:44;;;;;;;2.13;0.70;;;10.40;32.20;;;;;;6203269;23;20233;-84
2022/02/21 03:05:11;;;;;;;3.25;1.00;;;10.40;31.20;;;;;;6204693;23;20181;-89
2022/02/21 03:07:38;;;;;;;1.10;1.00;;;10.50;31.30;;;;;;6204969;23;20206;-86
2022/02/21 03:10:06;;;;;;;1.98;0.93;;;10.40;31.40;;;;;;6206175;23;20186;-86
2022/02/21 03:12:34;;;;;;;0.88;0.82;;;10.40;31.60;;;;;;6205101;23;20273;-85
2022/02/21 03:15:03;;;;;;;1.15;0.77;;;10.30;31.40;;;;;;6206300;23;20203;-84
2022/02/21 03:17:30;;;;;;;1.70;0.93;;;10.30;31.60;;;;;;6203500;23;20254;-84
2022/02/21 03:19:57;;;;;;;1.88;1.30;;;10.40;30.60;;;;;;6203728;23;20179;-84
2022/02/21 03:22:24;;;;;;;1.17;1.00;;;10.50;31.00;;;;;;6202464;23;20232;-88
2022/02/21 03:25:06;;;;;;;1.10;0.80;;;10.60;31.00;;;;;;6204358;23;20206;-84
2022/02/21 03:27:39;;;;;;;3.28;2.40;;;10.50;30.30;;;;;;6203826;23;20238;-84
2022/02/21 03:30:10;;;;;;;2.40;2.15;;;10.50;31.20;;;;;;6202585;23;20189;-84
2022/02/21 03:32:37;;;;;;;1.73;1.20;;;10.60;30.40;;;;;;6205256;23;20212;-85
2022/02/21 03:35:04;;;;;;;1.00;0.90;;;10.70;30.20;;;;;;6205697;23;20266;-84
2022/02/21 03:37:32;;;;;;;1.85;1.42;;;10.60;30.70;;;;;;6205709;23;20202;-86
2022/02/21 03:39:59;;;;;;;1.10;1.00;;;10.60;30.30;;;;;;6181992;23;20175;-85
2022/02/21 03:42:27;;;;;;;2.50;1.52;;;10.70;30.40;;;;;;6206050;23;20294;-86
2022/02/21 03:44:54;;;;;;;0.88;0.88;;;10.60;30.80;;;;;;6157042;23;20190;-87
2022/02/21 03:47:22;;;;;;;3.78;3.40;;;10.50;31.30;;;;;;6205746;23;20202;-86
2022/02/21 03:49:49;;;;;;;1.85;1.30;;;10.70;30.90;;;;;;6206632;23;20222;-85
2022/02/21 03:52:18;;;;;;;2.17;1.70;;;10.60;30.70;;;;;;6206532;23;20198;-85
2022/02/21 03:54:45;;;;;;;3.83;1.70;;;10.60;31.60;;;;;;6206932;23;20225;-86
2022/02/21 03:57:12;;;;;;;2.80;1.10;;;10.70;31.00;;;;;;6205593;23;20214;-85
2022/02/21 03:59:43;;;;;;;1.95;1.10;;;10.60;31.20;;;;;;6207598;23;20179;-87
2022/02/21 04:02:10;;;;;;;1.05;0.70;;;10.70;31.10;;;;;;6210759;23;20210;-85
2022/02/21 04:04:38;;;;;;;1.08;0.98;;;10.60;31.10;;;;;;6184093;23;20176;-85
2022/02/21 04:07:06;;;;;;;1.65;1.05;;;10.70;30.70;;;;;;6208757;23;20202;-85
2022/02/21 04:09:34;;;;;;;1.80;0.88;;;10.60;31.20;;;;;;6209933;23;20186;-84
2022/02/21 04:12:00;;;;;;;1.27;1.00;;;10.60;32.00;;;;;;6206971;23;20214;-86
2022/02/21 04:14:27;;;;;;;3.08;1.10;;;10.50;32.20;;;;;;6207244;23;20178;-84
2022/02/21 04:16:54;;;;;;;1.25;0.90;;;10.50;31.90;;;;;;6206401;23;20221;-85
2022/02/21 04:19:24;;;;;;;2.65;0.80;;;10.50;32.20;;;;;;6206912;23;20186;-85
2022/02/21 04:21:56;;;;;;;1.08;0.90;;;10.40;32.30;;;;;;6142487;23;20210;-88
2022/02/21 04:24:23;;;;;;;1.00;0.90;;;10.50;32.50;;;;;;6180466;23;20214;-88
2022/02/21 04:26:51;;;;;;;1.58;0.80;;;10.40;32.80;;;;;;6205830;23;20202;-86
2022/02/21 04:29:18;;;;;;;7.50;0.90;;;10.30;33.20;;;;;;6181058;23;20172;-87
2022/02/21 04:31:45;;;;;;;1.48;0.70;;;10.30;33.70;;;;;;6205251;23;20198;-85
2022/02/21 04:34:13;;;;;;;0.93;0.70;;;10.20;33.90;;;;;;6205658;23;20197;-85
2022/02/21 04:36:40;;;;;;;1.13;0.82;;;10.20;34.60;;;;;;6204308;23;20194;-84
2022/02/21 04:39:09;;;;;;;0.63;0.63;;;10.00;36.00;;;;;;6205941;23;20201;-85
2022/02/21 04:41:37;;;;;;;0.95;0.88;;;10.10;35.80;;;;;;6175924;23;20267;-85
2022/02/21 04:44:05;;;;;;;0.80;0.80;;;10.00;36.70;;;;;;6204697;23;20201;-85
2022/02/21 04:46:32;;;;;;;2.53;1.20;;;9.80;39.50;;;;;;6205103;23;20210;-85
2022/02/21 04:48:59;;;;;;;0.63;0.63;;;9.90;39.30;;;;;;6207683;23;20682;-84
2022/02/21 04:51:26;;;;;;;0.98;0.75;;;9.80;40.20;;;;;;6206603;23;20223;-85
2022/02/21 04:53:53;;;;;;;0.90;0.90;;;9.80;40.10;;;;;;6205981;23;20202;-84
2022/02/21 04:56:21;;;;;;;0.68;0.68;;;9.80;40.20;;;;;;6205788;23;20206;-85
2022/02/21 04:58:48;;;;;;;0.63;0.63;;;9.80;40.40;;;;;;6178359;23;20212;-84
2022/02/21 05:01:15;;;;;;;0.75;0.70;;;9.80;40.30;;;;;;6205475;23;20209;-84
2022/02/21 05:03:42;;;;;;;1.13;0.63;;;9.70;41.00;;;;;;6204547;23;20206;-85
2022/02/21 05:06:10;;;;;;;0.98;0.80;;;9.70;41.20;;;;;;6203370;23;20175;-84
2022/02/21 05:08:37;;;;;;;0.70;0.70;;;9.60;41.60;;;;;;6204056;23;20203;-85
2022/02/21 05:11:07;;;;;;;0.85;0.85;;;9.60;43.20;;;;;;6204823;23;20195;-85
2022/02/21 05:13:39;;;;;;;0.68;0.68;;;9.60;42.60;;;;;;6203572;23;20221;-84
2022/02/21 05:16:07;;;;;;;0.60;0.60;;;9.60;42.40;;;;;;6177366;23;20194;-87
2022/02/21 05:18:34;;;;;;;1.05;0.80;;;9.50;43.30;;;;;;6202409;23;20226;-85
2022/02/21 05:21:01;;;;;;;0.70;0.70;;;9.40;45.00;;;;;;6203028;23;20205;-84
2022/02/21 05:23:32;;;;;;;0.65;0.65;;;9.40;44.40;;;;;;6203689;23;20213;-84
2022/02/21 05:25:59;;;;;;;0.60;0.60;;;9.30;45.80;;;;;;6205191;23;20169;-84
2022/02/21 05:28:39;;;;;;;0.63;0.63;;;9.20;47.70;;;;;;6203122;23;20225;-85
2022/02/21 05:31:08;;;;;;;0.80;0.80;;;9.10;47.60;;;;;;6206761;23;20167;-85
2022/02/21 05:33:36;;;;;;;0.70;0.70;;;9.20;47.70;;;;;;6177371;23;20210;-85
2022/02/21 05:36:03;;;;;;;0.70;0.70;;;9.20;47.70;;;;;;6205144;23;20238;-84
2022/02/21 05:38:30;;;;;;;0.70;0.70;;;9.20;47.70;;;;;;6204228;23;20209;-85
2022/02/21 05:40:57;;;;;;;1.95;0.88;;;9.30;47.70;;;;;;6178167;23;20185;-87
2022/02/21 05:43:24;;;;;;;0.90;0.80;;;9.20;47.70;;;;;;6203006;23;20202;-85
2022/02/21 05:45:55;;;;;;;1.13;0.75;;;9.20;47.70;;;;;;6179573;23;20174;-85
2022/02/21 05:48:22;;;;;;;2.33;0.70;;;9.20;47.80;;;;;;6204785;23;20211;-87
2022/02/21 05:50:49;;;;;;;1.15;0.82;;;9.30;48.90;;;;;;6203678;23;20194;-84
2022/02/21 05:53:18;;;;;;;0.90;0.75;;;9.20;47.70;;;;;;6202777;23;20250;-86
2022/02/21 05:55:45;;;;;;;0.65;0.65;;;9.30;47.70;;;;;;6203620;23;20195;-84
2022/02/21 05:58:13;;;;;;;0.70;0.70;;;9.30;48.90;;;;;;6203784;23;20206;-84
2022/02/21 06:00:42;;;;;;;1.08;0.70;;;9.40;47.80;;;;;;6204812;23;20221;-84
2022/02/21 06:03:12;;;;;;;1.25;0.98;;;9.40;47.80;;;;;;6179566;23;20217;-85
2022/02/21 06:05:39;;;;;;;1.15;0.95;;;9.40;48.10;;;;;;6197454;23;20190;-83
2022/02/21 06:08:06;;;;;;;2.92;0.73;;;8.10;58.90;;;;;;6197269;23;20289;-85
2022/02/21 06:10:37;;;;;;;1.50;0.60;;;7.10;71.90;;;;;;6200181;23;20209;-86
2022/02/21 06:13:04;;;;;;;2.00;0.60;;;5.90;79.50;;;;;;6200317;23;20210;-84
2022/02/21 07:16:52;;;;;;;5.27;1.10;;;2.80;98.20;;;;;;6187458;23;20202;-86
2022/02/21 07:19:34;;;;;;;2.83;1.10;;;3.00;97.90;;;;;;6196397;23;20438;-86
2022/02/21 07:22:01;;;;;;;2.40;1.20;;;2.90;97.80;;;;;;6224939;23;20210;-85
2022/02/21 07:24:28;;;;;;;2.10;1.27;;;2.90;97.40;;;;;;6224602;23;20201;-85
2022/02/21 07:26:55;;;;;;;1.87;1.00;;;2.70;97.70;;;;;;6227055;23;20261;-85
2022/02/21 07:29:23;;;;;;;1.90;1.23;;;2.80;98.00;;;;;;6226862;23;20174;-85
2022/02/21 07:31:51;;;;;;;1.50;1.00;;;2.80;98.40;;;;;;6227292;23;20165;-85
2022/02/21 07:34:44;;;;;;;1.57;1.00;;;2.90;98.20;;;;;;6226527;23;20182;-85
2022/02/21 07:37:11;;;;;;;3.00;1.20;;;3.10;97.30;;;;;;6226748;23;20226;-85
2022/02/21 07:39:38;;;;;;;1.53;0.87;;;3.30;96.90;;;;;;6226362;23;20194;-85
2022/02/21 07:42:15;;;;;;;1.27;0.93;;;3.20;96.50;;;;;;6226238;23;20225;-85
2022/02/21 07:44:42;;;;;;;1.77;1.03;;;3.10;97.10;;;;;;6226069;23;20201;-85
2022/02/21 07:47:10;;;;;;;1.70;1.00;;;3.20;96.90;;;;;;6226174;23;20202;-85
2022/02/21 07:52:13;;;;;;;1.63;1.17;;;3.10;96.10;;;;;;6196908;23;20208;-84
2022/02/21 07:55:00;;;;;;;2.27;1.30;;;3.20;95.60;;;;;;6196211;23;20239;-84
2022/02/21 07:57:27;;;;;;;1.20;1.10;;;3.20;95.70;;;;;;6197351;23;20262;-84
2022/02/21 07:59:54;;;;;;;1.80;1.10;;;3.20;95.00;;;;;;6198488;23;20197;-84
2022/02/21 08:02:22;;;;;;;2.93;1.13;;;3.20;94.70;;;;;;6197639;23;20203;-85
2022/02/21 08:04:49;;;;;;;1.70;1.10;;;3.20;94.00;;;;;;6196023;23;20179;-84
2022/02/21 08:07:16;;;;;;;1.63;0.83;;;3.30;93.50;;;;;;6197303;23;20206;-84
2022/02/21 08:09:43;;;;;;;2.80;1.37;;;3.30;92.90;;;;;;6194696;23;20254;-86
2022/02/21 08:12:11;;;;;;;3.67;1.20;;;3.40;93.60;;;;;;6194779;23;20200;-84
2022/02/21 08:14:38;;;;;;;2.53;1.30;;;3.60;93.00;;;;;;6225003;23;20257;-86
2022/02/21 08:17:05;;;;;;;3.57;1.40;;;3.60;92.70;;;;;;6226445;23;20224;-88
2022/02/21 08:19:34;;;;;;;2.30;1.20;;;3.70;91.70;;;;;;6227219;23;20229;-85
2022/02/21 08:22:01;;;;;;;3.97;1.30;;;3.90;91.40;;;;;;6227928;23;20575;-86
2022/02/21 08:24:27;;;;;;;4.47;1.33;;;4.00;90.70;;;;;;6227657;23;20254;-86
2022/02/21 08:26:55;;;;;;;1.20;1.10;;;4.00;91.60;;;;;;6226431;23;20201;-84
2022/02/21 08:29:22;;;;;;;5.47;1.20;;;4.30;89.60;;;;;;6226926;23;20208;-86
2022/02/21 08:31:49;;;;;;;2.17;1.27;;;4.30;89.00;;;;;;6225666;23;20535;-86
2022/02/21 08:34:18;;;;;;;1.77;1.07;;;4.20;90.50;;;;;;6226313;23;20614;-89
2022/02/21 08:36:46;;;;;;;3.97;1.70;;;4.20;90.40;;;;;;6226873;23;20240;-86
2022/02/21 08:39:13;;;;;;;1.37;1.03;;;4.10;90.10;;;;;;6228041;23;20233;-86
2022/02/21 08:41:40;;;;;;;2.43;1.50;;;4.10;90.50;;;;;;6227862;23;20198;-84
2022/02/21 08:44:07;;;;;;;4.97;1.20;;;4.20;90.90;;;;;;6226673;23;20718;-84
2022/02/21 08:46:34;;;;;;;3.43;1.60;;;4.30;90.90;;;;;;6226714;23;20201;-85
2022/02/21 08:49:02;;;;;;;5.23;1.10;;;4.50;89.30;;;;;;6213444;23;20733;-87
2022/02/21 08:51:29;;;;;;;3.57;1.27;;;4.50;88.70;;;;;;6196185;23;20174;-85
2022/02/21 08:53:58;;;;;;;1.63;1.17;;;4.60;89.50;;;;;;6197009;23;20231;-86
2022/02/21 08:56:25;;;;;;;4.07;1.00;;;4.80;87.50;;;;;;6196960;23;20194;-86
2022/02/21 08:58:52;;;;;;;1.83;1.13;;;4.90;87.50;;;;;;6197366;23;20237;-86
2022/02/21 09:01:19;;;;;;;1.83;1.30;;;5.00;86.60;;;;;;6197511;23;20202;-86
2022/02/21 09:03:46;;;;;;;1.37;1.10;;;5.00;87.30;;;;;;6197005;23;20721;-90
2022/02/21 09:06:13;;;;;;;3.30;1.33;;;4.90;86.80;;;;;;6202840;23;20190;-84
2022/02/21 09:08:40;;;;;;;2.53;1.20;;;4.90;86.00;;;;;;6201478;23;20206;-88
2022/02/21 09:11:08;;;;;;;2.40;1.20;;;4.90;85.50;;;;;;6199151;23;20257;-84
2022/02/21 09:13:35;;;;;;;2.50;1.20;;;4.90;83.80;;;;;;6197067;23;20209;-84
2022/02/21 09:16:02;;;;;;;3.53;1.30;;;5.00;83.90;;;;;;6199035;23;20217;-82
2022/02/21 09:18:29;;;;;;;4.90;1.40;;;5.10;82.90;;;;;;6198748;23;20286;-82
2022/02/21 09:20:56;;;;;;;2.43;1.30;;;5.40;82.20;;;;;;6192624;23;20174;-81
2022/02/21 09:23:23;;;;;;;6.53;1.70;;;5.50;78.00;;;;;;6192867;23;20234;-84
2022/02/21 09:25:50;;;;;;;3.67;1.70;;;5.70;76.00;;;;;;6194286;23;20184;-84
2022/02/21 09:28:18;;;;;;;3.07;1.50;;;5.60;77.00;;;;;;6199775;23;20257;-87
2022/02/21 09:30:45;;;;;;;3.23;1.50;;;5.50;77.30;;;;;;6198236;23;20258;-83
2022/02/21 09:33:12;;;;;;;3.90;1.47;;;5.40;76.00;;;;;;6193908;23;20203;-80
2022/02/21 09:35:38;;;;;;;1.87;1.40;;;5.40;77.80;;;;;;6195680;23;20198;-85
2022/02/21 09:38:05;;;;;;;4.13;1.60;;;5.40;78.50;;;;;;6196776;23;20285;-88
2022/02/21 09:40:32;;;;;;;3.57;1.50;;;5.40;76.80;;;;;;6208343;23;20195;-79
2022/02/21 09:43:00;;;;;;;3.27;1.30;;;5.40;76.30;;;;;;6202433;23;20236;-84
2022/02/21 09:45:29;;;;;;;4.33;1.30;;;5.50;76.00;;;;;;6199904;23;20230;-82
2022/02/21 09:47:57;;;;;;;4.40;1.50;;;5.70;76.50;;;;;;6193554;23;20261;-80
2022/02/21 09:50:26;;;;;;;3.60;1.57;;;5.70;74.50;;;;;;6197847;23;20194;-87
2022/02/21 09:52:54;;;;;;;2.60;1.33;;;5.60;70.40;;;;;;6199670;23;20206;-88
2022/02/21 09:55:21;;;;;;;1.93;1.30;;;5.50;68.70;;;;;;6196389;23;20178;-85
2022/02/21 09:57:48;;;;;;;5.20;1.40;;;5.40;70.10;;;;;;6195824;23;20206;-86
2022/02/21 10:00:16;;;;;;;3.00;1.50;;;5.40;70.00;;;;;;6197971;23;20163;-84
2022/02/21 10:02:47;;;;;;;2.60;1.10;;;5.50;70.30;;;;;;6196078;23;20236;-84
2022/02/21 10:05:15;;;;;;;2.00;1.20;;;5.70;67.00;;;;;;6171068;23;20178;-87
2022/02/21 10:07:44;;;;;;;3.00;1.37;;;5.50;64.10;;;;;;6197107;23;20218;-86
2022/02/21 10:10:12;;;;;;;4.60;1.30;;;5.50;62.90;;;;;;6198185;23;20230;-84
2022/02/21 10:12:46;;;;;;;5.00;1.40;;;5.50;65.20;;;;;;6195119;23;20209;-85
2022/02/21 10:15:16;;;;;;;5.37;1.40;;;5.80;60.30;;;;;;6197666;23;20189;-84
2022/02/21 10:17:44;;;;;;;2.40;1.43;;;6.20;58.00;;;;;;6198615;23;20211;-83
2022/02/21 10:20:12;;;;;;;3.90;1.70;;;6.80;53.90;;;;;;6201422;23;20651;-82
2022/02/21 10:22:39;;;;;;;5.73;1.80;;;7.20;51.40;;;;;;6174204;23;20233;-83
2022/02/21 10:25:17;;;;;;;4.53;1.50;;;7.30;48.40;;;;;;6198875;23;20202;-84
2022/02/21 10:27:44;;;;;;;2.45;1.27;;;7.40;49.30;;;;;;6197930;23;20254;-88
2022/02/21 10:30:16;;;;;;;4.00;1.42;;;8.30;46.90;;;;;;6197063;23;20226;-85
2022/02/21 10:32:47;;;;;;;4.50;1.55;;;8.80;41.50;;;;;;6197148;23;20221;-86
2022/02/21 10:35:17;;;;;;;4.13;1.50;;;9.10;37.50;;;;;;6197775;23;20180;-89
2022/02/21 10:37:45;;;;;;;5.57;1.40;;;9.20;36.10;;;;;;6196797;23;20210;-85
2022/02/21 10:40:15;;;;;;;3.92;1.40;;;9.10;36.10;;;;;;6197119;23;20198;-85
2022/02/21 10:42:44;;;;;;;3.38;1.40;;;9.50;31.90;;;;;;6196806;23;20206;-84
2022/02/21 10:45:20;;;;;;;3.35;1.35;;;9.80;33.40;;;;;;6203009;23;20155;-85
2022/02/21 10:51:18;;;;;;;4.03;1.20;;;10.70;28.30;;;;;;6199958;23;20246;-85
2022/02/21 10:53:49;;;;;;;2.55;1.17;;;9.50;32.40;;;;;;6193543;23;20221;-89
2022/02/21 10:56:18;;;;;;;4.00;1.40;;;8.80;33.30;;;;;;6196653;23;20169;-84
2022/02/21 10:58:45;;;;;;;2.55;1.30;;;8.30;37.00;;;;;;6195642;23;20533;-85
2022/02/21 11:01:12;;;;;;;5.05;1.20;;;7.70;38.30;;;;;;6195934;23;20291;-86
2022/02/21 11:03:40;;;;;;;3.92;1.40;;;7.40;39.40;;;;;;6195415;23;20229;-82
2022/02/21 11:06:07;;;;;;;3.07;1.53;;;7.30;41.40;;;;;;6195771;23;20206;-83
2022/02/21 11:08:37;;;;;;;3.93;1.30;;;7.00;43.20;;;;;;6197279;23;20237;-83
2022/02/21 11:11:11;;;;;;;2.10;1.60;;;6.80;45.70;;;;;;6193554;23;20202;-86
2022/02/21 11:13:38;;;;;;;5.20;1.70;;;6.50;52.30;;;;;;6193065;23;20211;-84
2022/02/21 11:16:05;;;;;;;2.70;1.20;;;6.50;52.40;;;;;;6195874;23;20206;-85
2022/02/21 11:18:34;;;;;;;2.30;1.80;;;6.60;53.40;;;;;;6192128;23;20214;-88
2022/02/21 11:21:02;;;;;;;6.13;1.93;;;6.60;53.70;;;;;;6192810;23;20180;-84
2022/02/21 11:23:29;;;;;;;3.23;1.80;;;6.80;53.40;;;;;;6193889;23;20218;-82
2022/02/21 11:26:03;;;;;;;3.47;1.50;;;6.70;52.20;;;;;;6193676;23;20253;-85
2022/02/21 11:28:34;;;;;;;4.93;1.80;;;6.90;52.40;;;;;;6194277;23;20229;-84
2022/02/21 11:31:06;;;;;;;3.97;1.50;;;6.90;50.70;;;;;;6170759;23;20171;-84
2022/02/21 11:33:33;;;;;;;2.50;1.60;;;6.90;51.40;;;;;;6170855;23;20210;-83
2022/02/21 11:36:03;;;;;;;5.13;1.70;;;6.90;51.20;;;;;;6199240;23;20174;-85
2022/02/21 11:38:33;;;;;;;3.20;1.80;;;7.00;51.40;;;;;;6194107;23;20297;-85
2022/02/21 11:41:12;;;;;;;3.60;1.75;;;7.00;50.80;;;;;;6197160;23;20190;-86
2022/02/21 11:43:40;;;;;;;5.10;1.63;;;7.00;52.80;;;;;;6195171;23;20198;-85
2022/02/21 11:46:09;;;;;;;4.03;1.65;;;7.00;49.40;;;;;;6192181;23;20185;-83
2022/02/21 11:49:01;;;;;;;3.85;1.73;;;7.00;51.40;;;;;;6192240;23;20244;-85
2022/02/21 11:51:33;;;;;;;5.30;1.90;;;7.10;55.30;;;;;;6195016;23;20260;-85
2022/02/21 11:54:48;;;;;;;3.17;1.80;;;7.40;46.20;;;;;;6168427;23;20216;-85
2022/02/21 11:57:16;;;;;;;2.45;1.60;;;7.60;51.00;;;;;;6167974;23;20210;-85
2022/02/21 11:59:44;;;;;;;3.43;1.70;;;7.90;46.60;;;;;;6199763;23;20170;-86
2022/02/21 12:02:14;;;;;;;4.97;1.52;;;7.90;43.40;;;;;;6197482;23;20212;-85
2022/02/21 12:04:53;;;;;;;5.47;1.70;;;7.90;43.40;;;;;;6196832;23;20175;-83
2022/02/21 12:07:25;;;;;;;4.50;1.50;;;7.70;44.10;;;;;;6206267;23;20538;-86
2022/02/21 12:10:12;;;;;;;5.55;1.60;;;7.90;44.60;;;;;;6207084;23;20177;-81
2022/02/21 12:12:55;;;;;;;5.47;1.60;;;7.90;41.40;;;;;;6196658;23;20210;-84
2022/02/21 12:15:23;;;;;;;6.57;1.67;;;8.10;41.00;;;;;;6195942;23;20163;-85
2022/02/21 12:18:01;;;;;;;4.43;1.80;;;8.20;40.30;;;;;;6197606;23;20202;-84
2022/02/21 12:20:36;;;;;;;7.25;1.80;;;8.50;40.90;;;;;;6195797;23;20162;-84
2022/02/21 12:23:16;;;;;;;4.90;1.70;;;8.20;38.40;;;;;;6193972;23;20301;-84
2022/02/21 12:26:19;;;;;;;6.30;1.85;;;8.20;39.10;;;;;;6169650;23;20654;-84
2022/02/21 12:29:08;;;;;;;5.63;1.90;;;7.90;40.60;;;;;;6196827;23;20222;-87
2022/02/21 12:31:35;;;;;;;7.88;2.00;;;7.80;40.70;;;;;;6195847;23;20191;-84
2022/02/21 12:34:02;;;;;;;4.68;1.95;;;7.60;41.60;;;;;;6197848;23;20181;-84
2022/02/21 12:36:38;;;;;;;5.10;1.80;;;7.70;40.70;;;;;;6199552;23;20226;-85
2022/02/21 12:39:07;;;;;;;3.55;1.50;;;7.70;41.90;;;;;;6199331;23;20198;-86
2022/02/21 12:41:36;;;;;;;6.20;2.00;;;7.80;41.10;;;;;;6198254;23;20206;-83
2022/02/21 12:44:07;;;;;;;4.93;2.05;;;7.80;43.40;;;;;;6197866;23;20190;-84
2022/02/21 12:46:36;;;;;;;6.35;1.83;;;7.70;42.50;;;;;;6197314;23;20171;-84
2022/02/21 12:49:05;;;;;;;6.15;1.67;;;7.80;43.10;;;;;;6198303;23;20647;-85
2022/02/21 12:51:34;;;;;;;5.18;1.88;;;8.10;42.30;;;;;;6171474;23;20178;-84
2022/02/21 12:54:06;;;;;;;5.13;1.70;;;8.10;38.00;;;;;;6197313;23;20214;-84
2022/02/21 12:56:45;;;;;;;6.93;1.70;;;7.70;38.60;;;;;;6193924;23;20162;-83
2022/02/21 12:59:15;;;;;;;4.23;1.90;;;7.30;40.20;;;;;;6198266;23;20253;-82
2022/02/21 13:01:42;;;;;;;5.20;1.80;;;7.10;45.00;;;;;;6198503;23;20476;-82
2022/02/21 13:04:09;;;;;;;3.43;1.33;;;7.00;49.90;;;;;;6200162;23;20238;-82
2022/02/21 13:06:39;;;;;;;5.27;2.03;;;6.80;58.70;;;;;;6198832;23;20175;-82
2022/02/21 13:09:07;;;;;;;4.13;1.60;;;6.80;67.30;;;;;;6197464;23;20649;-85
2022/02/21 13:11:36;;;;;;;8.87;2.10;;;7.00;61.00;;;;;;6199278;23;20179;-87
2022/02/21 13:14:06;;;;;;;5.97;2.00;;;7.10;68.70;;;;;;6202310;23;20163;-85
2022/02/21 13:16:52;;;;;;;3.73;1.83;;;7.30;66.20;;;;;;6201624;23;20205;-86
2022/02/21 13:19:24;;;;;;;3.90;1.70;;;7.30;57.20;;;;;;6202016;23;20249;-82
2022/02/21 13:21:51;;;;;;;2.63;1.60;;;7.20;56.30;;;;;;6201175;23;20242;-88
2022/02/21 13:24:19;;;;;;;4.10;1.77;;;7.20;54.80;;;;;;6199083;23;20265;-88
2022/02/21 13:26:49;;;;;;;6.93;2.00;;;7.30;56.30;;;;;;6199088;23;20210;-85
2022/02/21 13:29:38;;;;;;;6.13;1.80;;;7.50;51.40;;;;;;6199578;23;20218;-87
2022/02/21 13:32:10;;;;;;;4.13;1.73;;;7.50;49.10;;;;;;6191264;23;20331;-84
2022/02/21 13:34:54;;;;;;;4.80;1.60;;;7.50;46.30;;;;;;6197270;23;20254;-85
2022/02/21 13:37:23;;;;;;;3.63;1.63;;;7.50;46.30;;;;;;6194149;23;20258;-85
2022/02/21 13:39:54;;;;;;;4.33;1.77;;;7.50;46.30;;;;;;6198101;23;20199;-82
2022/02/21 13:42:26;;;;;;;5.67;1.80;;;7.60;46.40;;;;;;6197636;23;20195;-86
2022/02/21 13:45:18;;;;;;;3.13;1.83;;;7.50;46.20;;;;;;6195844;23;20191;-84
2022/02/21 13:48:01;;;;;;;5.83;1.70;;;7.40;44.10;;;;;;6196704;23;20217;-84
2022/02/21 13:50:48;;;;;;;3.63;1.60;;;7.40;44.20;;;;;;6193959;23;20162;-82
2022/02/21 13:53:18;;;;;;;6.10;1.80;;;7.30;46.10;;;;;;6194583;23;20257;-85
2022/02/21 13:55:54;;;;;;;4.63;1.60;;;7.10;41.80;;;;;;6196028;23;20233;-85
2022/02/21 13:58:29;;;;;;;6.23;1.70;;;6.90;43.30;;;;;;6197991;23;20612;-87
2022/02/21 14:01:06;;;;;;;2.97;1.63;;;6.90;40.70;;;;;;6171984;23;20173;-85
2022/02/21 14:03:39;;;;;;;6.83;1.87;;;6.80;40.60;;;;;;6197451;23;20251;-84
2022/02/21 14:06:07;;;;;;;6.73;2.07;;;6.80;42.60;;;;;;6199302;23;20242;-86
2022/02/21 14:08:52;;;;;;;3.87;1.97;;;7.00;40.70;;;;;;6196481;23;20199;-86
2022/02/21 14:11:22;;;;;;;5.30;1.53;;;7.00;42.00;;;;;;6199370;23;20162;-91
2022/02/21 14:13:51;;;;;;;3.93;1.63;;;6.90;42.20;;;;;;6195668;23;20230;-89